Time;durP1;ratioP1;P1;durP2;ratioP2;P2;SDS_P1;SDS_P2;PMS_P1;PMS_P2;Temp;Humidity;BMP_temperature;BMP_pressure;BME280_temperature;BME280_humidity;BME280_pressure;Samples;Min_cycle;Max_cycle;Signal;HPM_P1;HPM_P2
2024/01/16 00:02:22;;;;;;;0.20;0.20;;;;;;;2.64;82.98;99931.00;4924192;28;20489;-85
2024/01/16 00:04:48;;;;;;;0.20;0.20;;;;;;;2.67;83.05;99936.03;4939303;28;20058;-86
2024/01/16 00:07:16;;;;;;;0.20;0.20;;;;;;;2.64;82.92;99928.44;4938961;28;20097;-85
2024/01/16 00:09:41;;;;;;;0.20;0.20;;;;;;;2.71;83.15;99938.44;4939818;28;20035;-85
2024/01/16 00:12:07;;;;;;;0.10;0.10;;;;;;;2.80;83.40;99957.78;4939872;28;20034;-86
2024/01/16 00:14:36;;;;;;;0.20;0.20;;;;;;;2.77;83.39;99953.63;4955476;28;20041;-86
2024/01/16 00:17:02;;;;;;;0.10;0.10;;;;;;;2.81;83.49;99955.19;4940010;28;20066;-85
2024/01/16 00:19:27;;;;;;;0.10;0.10;;;;;;;2.92;83.67;99952.34;4939403;28;20066;-85
2024/01/16 00:21:53;;;;;;;0.20;0.20;;;;;;;2.98;83.44;99957.28;4939424;28;20030;-85
2024/01/16 00:24:18;;;;;;;0.10;0.10;;;;;;;2.96;83.70;99963.31;4939502;28;20513;-85
2024/01/16 00:26:44;;;;;;;0.20;0.20;;;;;;;2.81;83.43;99939.03;4939464;28;20462;-85
2024/01/16 00:29:12;;;;;;;0.20;0.20;;;;;;;3.05;83.28;99969.00;4955244;28;20556;-86
2024/01/16 00:31:38;;;;;;;0.20;0.20;;;;;;;3.03;83.07;99970.75;4939880;28;20022;-86
2024/01/16 00:34:03;;;;;;;0.20;0.20;;;;;;;2.87;83.55;99970.38;4938806;28;20417;-85
2024/01/16 00:36:29;;;;;;;0.20;0.20;;;;;;;2.83;83.75;99968.75;4923491;28;20031;-85
2024/01/16 00:38:55;;;;;;;0.20;0.20;;;;;;;2.90;83.83;99987.31;4939714;28;20039;-86
2024/01/16 00:41:20;;;;;;;0.10;0.10;;;;;;;2.89;83.99;100000.97;4923208;28;20069;-86
2024/01/16 00:43:46;;;;;;;0.13;0.13;;;;;;;2.81;84.32;100015.66;4955043;28;20546;-86
2024/01/16 00:46:11;;;;;;;0.15;0.15;;;;;;;2.74;84.60;100027.75;4938877;28;20049;-85
2024/01/16 00:48:37;;;;;;;0.20;0.20;;;;;;;2.78;84.96;100034.47;4938704;28;20034;-86
2024/01/16 00:51:02;;;;;;;0.20;0.20;;;;;;;2.80;84.60;100040.38;4955040;28;20114;-85
2024/01/16 00:53:28;;;;;;;0.20;0.20;;;;;;;2.87;84.48;100062.34;4954829;28;20405;-85
2024/01/16 00:55:56;;;;;;;0.10;0.10;;;;;;;2.91;84.74;100062.25;4938731;28;20090;-84
2024/01/16 00:58:22;;;;;;;0.20;0.20;;;;;;;2.90;84.90;100056.31;4939287;28;20045;-85
2024/01/16 01:00:47;;;;;;;0.20;0.20;;;;;;;2.84;84.90;100057.28;4939168;28;20452;-85
2024/01/16 01:03:13;;;;;;;0.20;0.20;;;;;;;2.75;85.70;100072.00;4938561;28;20113;-86
2024/01/16 01:05:38;;;;;;;0.20;0.20;;;;;;;2.85;85.46;100063.22;4938665;28;20055;-84
2024/01/16 01:08:04;;;;;;;0.20;0.20;;;;;;;2.96;85.53;100070.63;4938579;28;20042;-86
2024/01/16 01:10:30;;;;;;;0.20;0.20;;;;;;;3.01;85.48;100074.72;4954729;28;20034;-85
2024/01/16 01:12:55;;;;;;;0.20;0.20;;;;;;;2.94;85.33;100057.88;4922816;28;20409;-86
2024/01/16 01:15:21;;;;;;;0.20;0.20;;;;;;;2.96;85.08;100058.69;4972215;28;20057;-84
2024/01/16 01:17:50;;;;;;;0.20;0.20;;;;;;;2.93;85.53;100052.81;4971236;28;20569;-85
2024/01/16 01:20:17;;;;;;;0.20;0.20;;;;;;;2.76;86.81;100072.00;4938507;28;20034;-85
2024/01/16 01:22:44;;;;;;;0.20;0.20;;;;;;;2.60;87.41;100042.59;4954405;28;20034;-84
2024/01/16 01:25:10;;;;;;;0.10;0.10;;;;;;;2.73;88.06;100066.94;4954629;28;20437;-84
2024/01/16 01:27:36;;;;;;;0.20;0.20;;;;;;;2.84;88.03;100069.22;4922970;28;20500;-84
2024/01/16 01:30:01;;;;;;;0.10;0.10;;;;;;;2.97;87.54;100057.81;4954624;28;20034;-84
2024/01/16 01:32:27;;;;;;;0.20;0.20;;;;;;;3.11;87.32;100063.38;4938167;28;20497;-85
2024/01/16 01:34:52;;;;;;;0.20;0.20;;;;;;;3.02;86.79;100066.19;4954180;28;20442;-84
2024/01/16 01:37:18;;;;;;;0.20;0.20;;;;;;;3.07;86.66;100060.97;4954324;28;20472;-84
2024/01/16 01:39:43;;;;;;;0.20;0.20;;;;;;;3.17;86.60;100076.00;4954673;28;20031;-84
2024/01/16 01:42:09;;;;;;;0.20;0.20;;;;;;;3.20;86.00;100074.25;4922658;28;20035;-84
2024/01/16 01:44:34;;;;;;;0.20;0.20;;;;;;;3.20;86.68;100071.69;4938506;28;20563;-85
2024/01/16 01:47:00;;;;;;;0.20;0.20;;;;;;;3.20;86.47;100074.25;4938172;28;20035;-84
2024/01/16 01:49:26;;;;;;;0.10;0.10;;;;;;;3.23;86.53;100090.31;4954759;28;20436;-84
2024/01/16 01:51:51;;;;;;;0.20;0.20;;;;;;;3.19;85.57;100063.19;4938048;28;20539;-84
2024/01/16 01:54:17;;;;;;;0.20;0.20;;;;;;;3.27;85.05;100073.19;4922509;28;20026;-84
2024/01/16 01:56:44;;;;;;;0.20;0.20;;;;;;;3.47;82.57;100091.38;4922467;28;20038;-85
2024/01/16 01:59:09;;;;;;;0.20;0.20;;;;;;;3.54;81.16;100087.78;4938603;28;20034;-84
2024/01/16 02:01:35;;;;;;;0.20;0.20;;;;;;;3.65;80.34;100080.63;4938022;28;20038;-85
2024/01/16 02:04:00;;;;;;;0.10;0.10;;;;;;;3.68;79.01;100060.06;4938169;28;20035;-84
2024/01/16 02:06:26;;;;;;;0.20;0.20;;;;;;;3.83;77.83;100093.72;4937775;28;20069;-84
2024/01/16 02:08:51;;;;;;;0.20;0.20;;;;;;;3.93;77.84;100108.78;4938383;28;20047;-85
2024/01/16 02:11:17;;;;;;;0.20;0.20;;;;;;;3.84;76.81;100109.06;4922105;28;20549;-86
2024/01/16 02:13:42;;;;;;;0.20;0.20;;;;;;;3.95;77.16;100129.22;4953850;28;20063;-85
2024/01/16 02:16:20;;;;;;;0.10;0.10;;;;;;;4.00;77.23;100140.13;4953591;28;20113;-84
2024/01/16 02:18:46;;;;;;;0.20;0.20;;;;;;;4.03;76.11;100143.47;4938708;28;20484;-84
2024/01/16 02:21:12;;;;;;;0.20;0.20;;;;;;;3.96;74.34;100138.56;4954231;28;20031;-85
2024/01/16 02:23:38;;;;;;;0.20;0.20;;;;;;;4.00;73.76;100151.22;4938097;28;20140;-85
2024/01/16 02:26:03;;;;;;;0.20;0.20;;;;;;;3.92;74.36;100142.09;4937972;28;20421;-85
2024/01/16 02:28:29;;;;;;;0.20;0.20;;;;;;;4.08;72.97;100163.78;4937884;28;20508;-85
2024/01/16 02:30:54;;;;;;;0.20;0.20;;;;;;;4.14;73.65;100181.53;4941105;28;20122;-85
2024/01/16 02:33:20;;;;;;;0.20;0.20;;;;;;;4.10;73.24;100177.38;4925645;28;20185;-85
2024/01/16 02:35:45;;;;;;;0.20;0.20;;;;;;;3.96;72.49;100171.84;4941165;28;20034;-85
2024/01/16 02:38:11;;;;;;;0.20;0.20;;;;;;;3.90;73.10;100184.81;4941462;28;20030;-84
2024/01/16 02:40:36;;;;;;;0.20;0.20;;;;;;;3.77;73.25;100192.00;4941610;28;20030;-84
2024/01/16 02:43:02;;;;;;;0.20;0.20;;;;;;;3.92;72.53;100203.50;4940989;28;20493;-84
2024/01/16 02:45:27;;;;;;;0.20;0.20;;;;;;;3.86;72.41;100190.91;4941623;28;20481;-85
2024/01/16 02:47:53;;;;;;;0.20;0.20;;;;;;;3.82;71.32;100202.09;4925203;28;20030;-84
2024/01/16 02:50:20;;;;;;;0.20;0.20;;;;;;;3.97;70.48;100206.78;4941140;28;20034;-84
2024/01/16 02:52:45;;;;;;;0.20;0.20;;;;;;;3.98;70.64;100216.97;4957241;28;20027;-85
2024/01/16 02:55:11;;;;;;;0.20;0.20;;;;;;;3.83;70.17;100196.09;4957006;28;20034;-84
2024/01/16 02:57:36;;;;;;;0.20;0.20;;;;;;;3.87;70.14;100225.84;4956628;28;20023;-84
2024/01/16 03:00:02;;;;;;;0.20;0.20;;;;;;;3.81;69.36;100201.25;4940866;28;20031;-85
2024/01/16 03:02:28;;;;;;;0.15;0.15;;;;;;;3.76;68.66;100223.59;4940944;28;20042;-85
2024/01/16 03:04:54;;;;;;;0.20;0.20;;;;;;;3.90;68.58;100233.41;4940650;28;20046;-84
2024/01/16 03:07:20;;;;;;;0.20;0.20;;;;;;;3.89;67.23;100217.22;4956730;28;20077;-84
2024/01/16 03:09:46;;;;;;;0.20;0.20;;;;;;;3.95;66.79;100234.16;4924907;28;20489;-84
2024/01/16 03:12:11;;;;;;;0.20;0.20;;;;;;;3.83;67.28;100242.13;4940526;28;20523;-85
2024/01/16 03:14:38;;;;;;;0.20;0.20;;;;;;;3.85;66.75;100237.84;4940742;28;20477;-85
2024/01/16 03:17:04;;;;;;;0.20;0.20;;;;;;;3.67;67.39;100234.06;4973959;28;20035;-85
2024/01/16 03:19:30;;;;;;;0.20;0.20;;;;;;;3.88;66.62;100261.63;4957023;28;20113;-84
2024/01/16 03:21:55;;;;;;;0.20;0.20;;;;;;;3.97;66.14;100263.09;4940643;28;20055;-84
2024/01/16 03:24:21;;;;;;;0.20;0.20;;;;;;;4.00;65.23;100274.06;4956630;28;20027;-84
2024/01/16 03:26:46;;;;;;;0.20;0.20;;;;;;;3.98;66.61;100275.84;4940176;28;20081;-84
2024/01/16 03:29:12;;;;;;;0.20;0.20;;;;;;;3.94;66.50;100281.94;4940548;28;20034;-85
2024/01/16 03:31:37;;;;;;;0.20;0.20;;;;;;;3.97;66.85;100304.88;4924548;28;20042;-85
2024/01/16 03:34:03;;;;;;;0.20;0.20;;;;;;;3.90;66.56;100317.88;4940389;28;20034;-84
2024/01/16 03:36:29;;;;;;;0.20;0.20;;;;;;;3.83;66.66;100311.22;4955856;28;20023;-84
2024/01/16 03:38:54;;;;;;;0.20;0.20;;;;;;;3.86;66.82;100337.59;4940085;28;20489;-84
2024/01/16 03:41:20;;;;;;;0.20;0.20;;;;;;;3.83;66.70;100329.16;4939669;28;20548;-84
2024/01/16 03:43:45;;;;;;;0.20;0.20;;;;;;;3.83;66.27;100327.41;4940478;28;20485;-85
2024/01/16 03:46:11;;;;;;;0.20;0.20;;;;;;;3.77;66.74;100302.00;4940076;28;20034;-84
2024/01/16 03:48:37;;;;;;;0.20;0.20;;;;;;;3.80;65.67;100327.50;4940164;28;20054;-85
2024/01/16 03:51:02;;;;;;;0.20;0.20;;;;;;;3.80;65.22;100316.44;4940004;28;20034;-84
2024/01/16 03:53:28;;;;;;;0.20;0.20;;;;;;;3.86;65.92;100336.75;4956021;28;20023;-84
2024/01/16 03:55:53;;;;;;;0.20;0.20;;;;;;;3.83;65.68;100332.53;4939721;28;20037;-84
2024/01/16 03:58:19;;;;;;;0.20;0.20;;;;;;;3.80;66.27;100344.59;4955647;28;20113;-84
2024/01/16 04:00:44;;;;;;;0.20;0.20;;;;;;;3.81;64.82;100343.69;4924006;28;20031;-83
2024/01/16 04:03:11;;;;;;;0.20;0.20;;;;;;;3.75;64.80;100362.63;4955561;28;20066;-87
2024/01/16 04:05:36;;;;;;;0.20;0.20;;;;;;;3.74;64.72;100354.13;4939912;28;20050;-86
2024/01/16 04:08:02;;;;;;;0.20;0.20;;;;;;;3.84;63.55;100369.25;4955630;28;20039;-87
2024/01/16 04:10:27;;;;;;;0.10;0.10;;;;;;;3.80;64.49;100367.63;4939485;28;20103;-86
2024/01/16 04:12:53;;;;;;;0.20;0.20;;;;;;;3.87;63.85;100353.78;4923799;28;20046;-85
2024/01/16 04:15:18;;;;;;;0.20;0.20;;;;;;;3.85;63.99;100378.59;4955369;28;20034;-86
2024/01/16 04:17:44;;;;;;;0.20;0.20;;;;;;;3.75;64.57;100360.06;4939541;28;20038;-86
2024/01/16 04:20:10;;;;;;;0.20;0.20;;;;;;;3.81;63.74;100359.91;4955582;28;20038;-86
2024/01/16 04:22:36;;;;;;;0.20;0.20;;;;;;;3.88;63.68;100387.03;4955551;28;20026;-85
2024/01/16 04:25:04;;;;;;;0.20;0.20;;;;;;;3.91;64.03;100386.09;4939214;28;20110;-85
2024/01/16 04:27:30;;;;;;;0.10;0.10;;;;;;;3.85;63.12;100379.44;4939807;28;20517;-85
2024/01/16 04:29:56;;;;;;;0.20;0.20;;;;;;;3.76;62.44;100391.63;4939338;28;20030;-86
2024/01/16 04:32:21;;;;;;;0.10;0.10;;;;;;;3.82;61.70;100396.56;4972479;28;20037;-86
2024/01/16 04:34:47;;;;;;;0.20;0.20;;;;;;;3.88;61.72;100435.66;4936297;28;20023;-81
2024/01/16 04:37:12;;;;;;;0.20;0.20;;;;;;;3.89;62.47;100439.03;4938775;28;20445;-83
2024/01/16 04:39:38;;;;;;;0.20;0.20;;;;;;;3.88;62.38;100455.28;4938513;28;20512;-81
2024/01/16 04:42:04;;;;;;;0.10;0.10;;;;;;;3.93;62.26;100453.44;4938666;28;20034;-81
2024/01/16 04:44:29;;;;;;;0.10;0.10;;;;;;;3.92;62.46;100459.44;4954469;28;20027;-81
2024/01/16 04:46:55;;;;;;;0.20;0.20;;;;;;;3.84;63.10;100461.34;4938853;28;20030;-84
2024/01/16 04:49:20;;;;;;;0.10;0.10;;;;;;;3.57;62.76;100443.22;4938873;28;20031;-82
2024/01/16 04:51:47;;;;;;;0.10;0.10;;;;;;;3.65;63.15;100451.56;4938009;28;20030;-82
2024/01/16 04:54:12;;;;;;;0.20;0.20;;;;;;;3.74;62.51;100487.16;4938586;28;20564;-82
2024/01/16 04:56:38;;;;;;;0.20;0.20;;;;;;;3.66;61.69;100491.59;4938825;28;20038;-83
2024/01/16 04:59:03;;;;;;;0.20;0.20;;;;;;;3.70;61.97;100480.41;4954590;28;20421;-83
2024/01/16 05:01:29;;;;;;;0.20;0.20;;;;;;;3.67;62.36;100507.78;4953371;28;20081;-81
2024/01/16 05:03:54;;;;;;;0.20;0.20;;;;;;;3.67;62.30;100526.53;4954586;28;20031;-81
2024/01/16 05:06:20;;;;;;;0.10;0.10;;;;;;;3.59;62.86;100499.44;4938224;28;20046;-84
2024/01/16 05:08:46;;;;;;;0.10;0.10;;;;;;;3.66;63.14;100506.97;4938220;28;20030;-83
2024/01/16 05:11:11;;;;;;;0.20;0.20;;;;;;;3.58;64.18;100516.50;4953585;28;20469;-80
2024/01/16 05:13:37;;;;;;;0.20;0.20;;;;;;;3.62;63.26;100507.03;4953328;28;20027;-79
2024/01/16 05:16:02;;;;;;;0.10;0.10;;;;;;;3.55;63.02;100520.88;4971411;28;20039;-86
2024/01/16 05:18:28;;;;;;;0.20;0.20;;;;;;;3.52;62.59;100478.25;4970684;28;20072;-85
2024/01/16 05:20:55;;;;;;;0.20;0.20;;;;;;;3.54;63.53;100499.56;4970058;28;20035;-83
2024/01/16 05:23:21;;;;;;;0.20;0.20;;;;;;;3.68;63.04;100532.50;4952737;28;20404;-85
2024/01/16 05:25:47;;;;;;;0.20;0.20;;;;;;;3.69;63.56;100565.72;4971289;28;20059;-86
2024/01/16 05:28:12;;;;;;;0.10;0.10;;;;;;;3.72;63.17;100559.69;4970926;28;20039;-90
2024/01/16 05:30:38;;;;;;;0.20;0.20;;;;;;;3.53;63.75;100566.91;4937712;28;20027;-83
2024/01/16 05:33:03;;;;;;;0.20;0.20;;;;;;;3.65;63.06;100578.63;4946010;28;20038;-86
2024/01/16 05:35:29;;;;;;;0.20;0.20;;;;;;;3.69;63.38;100581.06;4969954;28;20084;-80
2024/01/16 05:37:55;;;;;;;0.20;0.20;;;;;;;3.71;63.11;100584.44;4970755;28;20030;-80
2024/01/16 05:40:22;;;;;;;0.20;0.20;;;;;;;3.62;62.80;100584.63;4969875;28;20027;-80
2024/01/16 05:42:48;;;;;;;0.20;0.20;;;;;;;3.68;63.14;100587.06;4970889;28;20485;-83
2024/01/16 05:45:14;;;;;;;0.20;0.20;;;;;;;3.64;62.41;100605.94;4954187;28;20039;-86
2024/01/16 05:47:39;;;;;;;0.10;0.10;;;;;;;3.66;63.15;100611.84;4946680;28;20038;-83
2024/01/16 05:50:06;;;;;;;0.20;0.20;;;;;;;3.52;63.30;100602.75;4953858;28;20034;-82
2024/01/16 05:52:32;;;;;;;0.20;0.20;;;;;;;3.68;62.89;100628.00;4970411;28;20053;-83
2024/01/16 05:54:59;;;;;;;0.20;0.20;;;;;;;3.81;63.55;100643.94;4919664;28;20608;-80
2024/01/16 05:57:25;;;;;;;0.20;0.20;;;;;;;3.83;62.51;100649.00;4952439;28;20031;-83
2024/01/16 05:59:51;;;;;;;0.20;0.20;;;;;;;3.66;62.96;100657.06;4953808;28;20031;-88
2024/01/16 06:02:16;;;;;;;0.20;0.20;;;;;;;3.84;63.76;100691.69;4971541;28;20034;-84
2024/01/16 06:04:42;;;;;;;0.20;0.20;;;;;;;3.79;64.19;100701.16;4935243;28;20079;-83
2024/01/16 06:07:07;;;;;;;0.20;0.20;;;;;;;3.65;64.80;100699.72;4949636;28;20054;-82
2024/01/16 06:09:33;;;;;;;0.20;0.20;;;;;;;3.66;64.57;100695.44;4937725;29;20062;-79
2024/01/16 06:11:59;;;;;;;0.20;0.20;;;;;;;3.48;64.30;100686.41;4943958;28;20177;-81
2024/01/16 06:14:24;;;;;;;0.20;0.20;;;;;;;3.54;64.86;100696.53;4955221;28;20041;-79
2024/01/16 06:16:50;;;;;;;0.20;0.20;;;;;;;3.45;64.36;100683.91;4956603;28;20035;-84
2024/01/16 06:19:16;;;;;;;0.20;0.20;;;;;;;3.55;64.17;100700.75;4956607;28;20125;-91
2024/01/16 06:21:42;;;;;;;0.20;0.20;;;;;;;3.63;64.38;100713.38;4940290;28;20054;-90
2024/01/16 06:24:08;;;;;;;0.20;0.20;;;;;;;3.64;63.70;100702.31;4943629;28;20519;-84
2024/01/16 06:26:33;;;;;;;0.20;0.20;;;;;;;3.76;64.13;100709.72;4972131;28;20038;-88
2024/01/16 06:28:59;;;;;;;0.20;0.20;;;;;;;3.66;64.24;100706.50;4974036;28;20504;-89
2024/01/16 06:31:26;;;;;;;0.20;0.20;;;;;;;3.44;65.67;100706.06;4974068;28;20089;-82
2024/01/16 06:33:51;;;;;;;0.20;0.20;;;;;;;3.64;65.58;100745.78;4972415;28;20022;-83
2024/01/16 06:36:17;;;;;;;0.20;0.20;;;;;;;3.61;64.64;100740.72;4972750;28;20468;-85
2024/01/16 06:38:43;;;;;;;0.20;0.20;;;;;;;3.73;64.89;100745.59;4956330;28;20030;-79
2024/01/16 06:41:08;;;;;;;0.20;0.20;;;;;;;3.74;64.05;100735.34;4972751;28;20031;-79
2024/01/16 06:43:34;;;;;;;0.10;0.10;;;;;;;3.80;63.71;100754.00;4972786;28;20039;-82
2024/01/16 06:45:59;;;;;;;0.17;0.17;;;;;;;3.74;63.99;100760.09;4938918;28;20039;-83
2024/01/16 06:48:25;;;;;;;0.20;0.20;;;;;;;3.72;63.72;100770.34;4939878;28;20050;-78
2024/01/16 06:50:51;;;;;;;0.20;0.20;;;;;;;3.82;64.08;100770.16;4957323;28;20042;-83
2024/01/16 06:53:16;;;;;;;0.20;0.20;;;;;;;3.78;63.79;100786.47;4938818;28;20041;-79
2024/01/16 06:55:42;;;;;;;0.20;0.20;;;;;;;3.83;63.45;100769.28;4972496;28;20078;-86
2024/01/16 06:58:09;;;;;;;0.20;0.20;;;;;;;3.92;62.99;100792.16;4942321;28;20030;-82
2024/01/16 07:00:35;;;;;;;0.20;0.20;;;;;;;3.80;62.85;100792.41;4955660;28;20077;-82
2024/01/16 07:03:00;;;;;;;0.20;0.20;;;;;;;4.01;62.55;100813.31;4973469;28;20030;-83
2024/01/16 07:05:26;;;;;;;0.20;0.20;;;;;;;4.10;62.64;100819.97;4958284;28;20089;-90
2024/01/16 07:07:51;;;;;;;0.20;0.20;;;;;;;4.03;63.14;100808.16;4956407;28;20033;-82
2024/01/16 07:10:21;;;;;;;0.20;0.20;;;;;;;4.20;62.60;100823.19;4944426;28;20031;-90
2024/01/16 07:12:49;;;;;;;0.20;0.20;;;;;;;4.25;63.28;100817.13;4936882;29;20031;-83
2024/01/16 07:15:14;;;;;;;0.20;0.20;;;;;;;4.29;62.55;100811.06;4956324;28;20038;-84
2024/01/16 07:17:40;;;;;;;0.10;0.10;;;;;;;4.38;61.84;100825.41;4931915;29;20058;-81
2024/01/16 07:20:07;;;;;;;0.20;0.20;;;;;;;4.42;61.51;100832.13;4953119;28;20027;-82
2024/01/16 07:22:34;;;;;;;0.20;0.20;;;;;;;4.44;61.52;100844.94;4949535;28;20042;-85
2024/01/16 07:24:59;;;;;;;0.10;0.10;;;;;;;4.42;61.02;100844.09;4955003;28;20100;-81
2024/01/16 07:27:25;;;;;;;0.20;0.20;;;;;;;4.57;61.43;100849.78;4959029;28;20477;-82
2024/01/16 07:29:51;;;;;;;0.20;0.20;;;;;;;4.57;60.96;100859.19;4954657;28;20089;-84
2024/01/16 07:32:16;;;;;;;0.20;0.20;;;;;;;4.52;60.33;100850.72;4954613;28;20386;-88
2024/01/16 07:34:42;;;;;;;0.20;0.20;;;;;;;4.47;60.81;100860.25;4954613;28;20042;-85
2024/01/16 07:37:07;;;;;;;0.20;0.20;;;;;;;4.49;61.14;100863.59;4953960;28;20030;-88
2024/01/16 07:39:33;;;;;;;0.20;0.20;;;;;;;4.60;60.35;100844.56;4939527;28;20030;-85
2024/01/16 07:41:59;;;;;;;0.20;0.20;;;;;;;4.69;59.37;100864.03;4940008;28;20495;-83
2024/01/16 07:44:24;;;;;;;0.20;0.20;;;;;;;4.79;58.83;100880.91;4954675;28;20408;-87
2024/01/16 07:46:50;;;;;;;0.20;0.20;;;;;;;4.82;58.58;100883.44;4948616;28;20042;-89
2024/01/16 07:49:16;;;;;;;0.20;0.20;;;;;;;4.66;58.81;100884.63;4938924;28;20027;-87
2024/01/16 07:51:42;;;;;;;0.10;0.10;;;;;;;4.74;59.80;100897.28;4936095;28;20035;-81
2024/01/16 07:54:08;;;;;;;0.20;0.20;;;;;;;4.79;60.49;100908.28;4954441;28;20042;-78
2024/01/16 07:56:34;;;;;;;0.20;0.20;;;;;;;4.77;60.27;100923.69;4971265;28;20579;-84
2024/01/16 07:59:01;;;;;;;0.20;0.20;;;;;;;4.70;59.98;100922.09;4954869;28;20023;-80
2024/01/16 08:01:28;;;;;;;0.20;0.20;;;;;;;5.09;62.74;100935.81;4954422;28;20026;-84
2024/01/16 08:03:54;;;;;;;0.20;0.20;;;;;;;4.96;61.89;100925.88;4971813;28;20158;-84
2024/01/16 08:06:20;;;;;;;0.10;0.10;;;;;;;4.90;60.97;100922.53;4954496;28;20059;-81
2024/01/16 08:08:46;;;;;;;0.10;0.10;;;;;;;5.18;60.85;100945.88;4954158;28;20027;-83
2024/01/16 08:11:12;;;;;;;0.20;0.20;;;;;;;5.14;60.31;100958.81;4961314;28;20086;-84
2024/01/16 08:13:37;;;;;;;0.17;0.17;;;;;;;5.05;59.54;100969.28;4922805;29;20035;-79
2024/01/16 08:16:03;;;;;;;0.20;0.20;;;;;;;4.87;60.01;100971.31;4962904;28;21047;-79
2024/01/16 08:18:28;;;;;;;0.20;0.20;;;;;;;4.80;58.74;100962.06;4954333;28;20158;-85
2024/01/16 08:20:54;;;;;;;0.20;0.20;;;;;;;4.79;59.26;100972.34;4940857;28;20046;-79
2024/01/16 08:23:21;;;;;;;0.20;0.20;;;;;;;4.90;59.43;100986.63;4971121;28;20023;-83
2024/01/16 08:25:46;;;;;;;0.20;0.20;;;;;;;4.86;59.32;100979.06;4954141;28;20042;-82
2024/01/16 08:28:12;;;;;;;0.20;0.20;;;;;;;4.54;58.96;100947.22;4970309;28;20085;-79
2024/01/16 08:30:37;;;;;;;0.20;0.20;;;;;;;4.86;59.10;100995.28;4953652;28;20416;-81
2024/01/16 08:33:03;;;;;;;0.20;0.20;;;;;;;5.02;59.77;100989.88;4953464;28;20043;-90
2024/01/16 08:35:29;;;;;;;0.20;0.20;;;;;;;4.99;58.34;101006.13;4971205;28;20501;-79
2024/01/16 08:37:54;;;;;;;0.20;0.20;;;;;;;4.98;58.34;100988.22;4953920;28;20109;-80
2024/01/16 08:40:20;;;;;;;0.20;0.20;;;;;;;5.04;58.74;101019.72;4970539;28;20130;-79
2024/01/16 08:42:45;;;;;;;0.20;0.20;;;;;;;4.99;58.44;101023.22;4953655;28;20030;-79
2024/01/16 08:45:11;;;;;;;0.20;0.20;;;;;;;5.02;58.41;101013.78;4970299;28;20065;-84
2024/01/16 08:47:37;;;;;;;0.20;0.20;;;;;;;5.12;56.08;101022.13;4969677;28;20054;-82
2024/01/16 08:50:02;;;;;;;0.20;0.20;;;;;;;5.10;56.82;101024.69;4952576;28;20069;-78
2024/01/16 08:52:28;;;;;;;0.10;0.10;;;;;;;5.09;57.79;101011.91;4950095;28;20053;-86
2024/01/16 08:54:54;;;;;;;0.20;0.20;;;;;;;4.97;56.16;101004.47;4946847;28;20039;-84
2024/01/16 08:57:19;;;;;;;0.10;0.10;;;;;;;5.05;56.18;101021.41;4953628;28;20027;-86
2024/01/16 08:59:45;;;;;;;0.20;0.20;;;;;;;5.30;57.53;101036.28;4953496;28;20034;-85
2024/01/16 09:02:10;;;;;;;0.20;0.20;;;;;;;5.33;55.48;101038.81;4939484;28;20034;-83
2024/01/16 09:04:36;;;;;;;0.20;0.20;;;;;;;5.42;56.70;101047.16;4953783;28;20027;-85
2024/01/16 09:07:04;;;;;;;0.10;0.10;;;;;;;5.43;54.83;101038.56;4952903;28;20034;-84
2024/01/16 09:09:30;;;;;;;0.20;0.20;;;;;;;5.63;54.76;101080.94;4971327;28;20044;-81
2024/01/16 09:11:57;;;;;;;0.20;0.20;;;;;;;5.74;55.87;101079.84;4953131;28;20031;-87
2024/01/16 09:14:23;;;;;;;0.20;0.20;;;;;;;5.90;53.69;101075.25;4953694;28;20085;-87
2024/01/16 09:16:49;;;;;;;0.20;0.20;;;;;;;5.99;53.31;101080.16;4934713;29;20039;-87
2024/01/16 09:19:14;;;;;;;0.20;0.20;;;;;;;6.00;53.49;101074.16;4926236;28;20049;-85
2024/01/16 09:21:40;;;;;;;0.20;0.20;;;;;;;5.85;53.31;101084.72;4923772;28;20034;-84
2024/01/16 09:24:06;;;;;;;0.20;0.20;;;;;;;5.62;52.58;101087.81;4953084;28;20031;-85
2024/01/16 09:26:31;;;;;;;0.20;0.20;;;;;;;5.69;52.21;101091.06;4969982;28;20081;-86
2024/01/16 09:28:57;;;;;;;0.20;0.20;;;;;;;5.76;52.55;101090.91;4970430;28;20022;-84
2024/01/16 09:31:22;;;;;;;0.20;0.20;;;;;;;5.77;51.73;101068.63;4953294;28;20027;-84
2024/01/16 09:33:48;;;;;;;0.20;0.20;;;;;;;5.63;52.39;101080.94;4971998;28;20031;-84
2024/01/16 09:36:14;;;;;;;0.10;0.10;;;;;;;5.52;52.46;101093.16;4955997;28;20089;-87
2024/01/16 09:38:39;;;;;;;0.10;0.10;;;;;;;5.48;51.86;101089.78;4954712;28;20039;-84
2024/01/16 09:41:05;;;;;;;0.20;0.20;;;;;;;5.54;52.55;101092.25;4973678;28;20110;-81
2024/01/16 09:43:31;;;;;;;0.20;0.20;;;;;;;5.54;52.14;101101.66;4956299;28;20047;-84
2024/01/16 09:45:57;;;;;;;0.20;0.20;;;;;;;5.54;51.92;101099.09;4940353;28;20493;-82
2024/01/16 09:48:23;;;;;;;0.20;0.20;;;;;;;5.43;52.94;101105.28;4957244;28;20034;-86
2024/01/16 09:50:49;;;;;;;0.20;0.20;;;;;;;5.31;51.27;101114.94;4956708;28;20031;-88
2024/01/16 09:53:14;;;;;;;0.20;0.20;;;;;;;5.10;53.22;101091.38;4959552;28;20027;-88
2024/01/16 09:55:40;;;;;;;0.20;0.20;;;;;;;5.26;53.29;101115.03;4956292;28;20038;-86
2024/01/16 09:58:06;;;;;;;0.20;0.20;;;;;;;5.27;53.29;101139.81;4924952;28;20030;-85
2024/01/16 10:00:32;;;;;;;0.20;0.20;;;;;;;5.14;52.08;101128.94;4940726;28;20037;-83
2024/01/16 10:02:58;;;;;;;0.20;0.20;;;;;;;5.17;52.10;101102.38;4957106;28;20181;-87
2024/01/16 10:05:24;;;;;;;0.20;0.20;;;;;;;5.40;51.63;101128.44;4957423;28;20137;-82
2024/01/16 10:07:49;;;;;;;0.20;0.20;;;;;;;5.52;53.31;101129.94;4956898;28;20469;-81
2024/01/16 10:10:16;;;;;;;0.20;0.20;;;;;;;5.69;52.26;101127.00;4955886;28;20066;-80
2024/01/16 10:12:42;;;;;;;0.20;0.20;;;;;;;5.69;52.20;101117.56;4956002;28;20035;-85
2024/01/16 10:15:08;;;;;;;0.20;0.20;;;;;;;5.78;50.78;101121.66;4957163;28;20034;-84
2024/01/16 10:17:41;;;;;;;0.20;0.20;;;;;;;5.88;49.39;101127.47;4955262;28;20052;-88
2024/01/16 10:20:07;;;;;;;;;;;;;;;5.97;50.63;101143.53;4940861;28;20035;-82
2024/01/16 10:22:32;;;;;;;0.20;0.20;;;;;;;5.69;50.48;101111.59;4963237;28;20696;-87
2024/01/16 10:25:05;;;;;;;0.20;0.20;;;;;;;5.81;50.48;101136.19;4956170;28;20520;-83
2024/01/16 10:27:31;;;;;;;0.20;0.20;;;;;;;5.88;50.69;101133.44;4956181;28;20957;-85
2024/01/16 10:29:57;;;;;;;0.20;0.20;;;;;;;5.99;50.64;101136.66;4956955;28;20481;-90
2024/01/16 10:32:33;;;;;;;0.20;0.20;;;;;;;5.97;51.23;101138.41;4925849;28;20035;-91
2024/01/16 10:35:08;;;;;;;0.10;0.10;;;;;;;5.89;49.33;101134.28;4958057;28;20386;-84
2024/01/16 10:37:47;;;;;;;0.10;0.10;;;;;;;5.96;49.60;101147.00;4956168;28;20039;-89
2024/01/16 10:40:18;;;;;;;0.20;0.20;;;;;;;5.71;48.67;101145.81;4940506;28;20027;-86
2024/01/16 10:42:46;;;;;;;0.20;0.20;;;;;;;5.56;49.24;101140.97;4933831;28;21566;-83
2024/01/16 10:45:17;;;;;;;0.20;0.20;;;;;;;5.52;49.39;101145.34;4956466;28;20114;-88
2024/01/16 10:47:43;;;;;;;0.20;0.20;;;;;;;5.64;49.25;101146.81;4940259;28;20035;-86
2024/01/16 10:50:09;;;;;;;0.20;0.20;;;;;;;5.79;49.57;101151.59;4972853;28;20058;-83
2024/01/16 10:52:34;;;;;;;0.20;0.20;;;;;;;5.82;49.34;101141.28;4955680;28;20042;-83
2024/01/16 10:55:04;;;;;;;0.20;0.20;;;;;;;6.06;49.04;101160.47;4940309;28;20031;-86
2024/01/16 10:57:31;;;;;;;0.20;0.20;;;;;;;6.10;47.07;101154.41;4940557;28;20031;-89
2024/01/16 11:00:04;;;;;;;0.20;0.20;;;;;;;6.10;48.76;101163.84;4956296;28;20093;-88
2024/01/16 11:03:06;;;;;;;0.20;0.20;;;;;;;6.18;47.47;101167.06;4939287;28;20022;-84
2024/01/16 11:05:33;;;;;;;0.20;0.20;;;;;;;5.92;45.97;101158.22;4901499;29;20059;-85
2024/01/16 11:08:01;;;;;;;0.20;0.20;;;;;;;5.88;46.18;101174.53;4927902;28;20082;-85
2024/01/16 11:10:29;;;;;;;0.20;0.20;;;;;;;5.71;46.31;101153.50;4947401;28;20036;-89
2024/01/16 11:12:55;;;;;;;0.20;0.20;;;;;;;5.71;47.22;101136.38;4950072;28;20057;-87
2024/01/16 11:15:21;;;;;;;0.20;0.20;;;;;;;5.97;46.74;101174.38;4962449;28;20026;-92
2024/01/16 11:17:46;;;;;;;0.20;0.20;;;;;;;5.83;46.03;101150.69;4938946;28;20050;-85
2024/01/16 11:20:13;;;;;;;0.20;0.20;;;;;;;5.93;47.05;101170.19;4938036;28;20035;-84
2024/01/16 11:22:40;;;;;;;0.20;0.20;;;;;;;6.01;47.34;101180.31;4939707;28;20039;-90
2024/01/16 11:25:16;;;;;;;0.20;0.20;;;;;;;6.01;48.44;101160.59;4942303;28;20035;-91
2024/01/16 11:27:43;;;;;;;0.20;0.20;;;;;;;6.26;47.33;101186.59;4962277;28;20026;-90
2024/01/16 11:30:10;;;;;;;0.20;0.20;;;;;;;6.21;47.35;101188.41;4939667;28;20037;-85